Gomera — V2GM4 — position and weather

sailwx.info

Track history (hours):
 
Tides and Currents Weather Stations Pressure Air Temp Water Temp Dewpoint Dewpoint Depression Visibility Wind Speed Wind Dir Waves Ship Positions

Gomera

Last reported at 2018-Apr-19 17:36 UTC. Time now 2018-Apr-19 19:16 UTC.
Position N 60°01' E 029°20'.

Length 106 m; draft 4.5 m.

Type: Cargo ship. MMSI: 305996000.

Date/timePositionNaut miles runAvg speedWind from/ knotsBaromVisibWave heightAir tempDewpointWater temp
2018-Apr-19 17:36N 60°01' E 029°20'1 6.8
2018-Apr-19 17:30N 60°01' E 029°19'610.2
2018-Apr-19 16:57N 60°02' E 029°08'510.5
2018-Apr-19 16:31N 60°02' E 028°58'510.7
2018-Apr-19 16:00N 60°02' E 028°48'510.7
2018-Apr-19 15:30N 60°02' E 028°37'510.4
2018-Apr-19 15:00N 60°03' E 028°27'510.4
2018-Apr-19 14:30N 60°06' E 028°18'510.3
2018-Apr-19 14:00N 60°08' E 028°08'510.8
2018-Apr-19 13:30N 60°09' E 027°58'611.1
2018-Apr-19 13:00N 60°11' E 027°47'510.9
2018-Apr-19 12:30N 60°08' E 027°38'611.3
2018-Apr-19 12:00N 60°05' E 027°28'611.5
2018-Apr-19 11:30N 60°02' E 027°18'611.2
2018-Apr-19 11:00N 59°59' E 027°08'510.6
2018-Apr-19 10:30N 59°58' E 026°58'511.0
2018-Apr-19 10:00N 59°59' E 026°47'510.7
2018-Apr-19 09:30N 59°59' E 026°36'510.8
2018-Apr-19 09:00N 59°58' E 026°26'610.9
2018-Apr-19 08:30N 59°56' E 026°16'2511.4
2018-Apr-19 06:21N 59°49' E 025°28'411.7
2018-Apr-19 06:00N 59°49' E 025°20'611.9
2018-Apr-19 05:31N 59°48' E 025°09'611.8
2018-Apr-19 05:01N 59°47' E 024°57'612.0
2018-Apr-19 04:30N 59°45' E 024°46'611.9
2018-Apr-19 04:01N 59°44' E 024°34'612.0
2018-Apr-19 03:30N 59°43' E 024°23'811.9
2018-Apr-19 02:52N 59°40' E 024°08'511.8
2018-Apr-19 02:29N 59°39' E 023°60'612.0
2018-Apr-19 02:00N 59°37' E 023°49'612.1
2018-Apr-19 01:30N 59°36' E 023°37'612.1
2018-Apr-19 01:01N 59°34' E 023°26'711.9
2018-Apr-19 00:26N 59°32' E 023°13'27612.0
2018-Apr-18 01:18N 56°12' E 017°14'411.9
2018-Apr-18 01:00N 56°09' E 017°10'611.9
2018-Apr-18 00:30N 56°04' E 017°05'611.9
2018-Apr-18 00:00N 55°59' E 016°60'611.9
2018-Apr-17 23:30N 55°54' E 016°55'611.8
2018-Apr-17 23:00N 55°49' E 016°49'611.7
2018-Apr-17 22:30N 55°46' E 016°39'612.0
2018-Apr-17 22:00N 55°45' E 016°29'612.2
2018-Apr-17 21:30N 55°43' E 016°18'612.0
2018-Apr-17 21:01N 55°42' E 016°08'612.1
2018-Apr-17 20:31N 55°41' E 015°58'612.2
2018-Apr-17 20:01N 55°39' E 015°47'612.1
2018-Apr-17 19:30N 55°38' E 015°37'612.1
2018-Apr-17 19:00N 55°36' E 015°27'612.1
2018-Apr-17 18:30N 55°33' E 015°17'612.1
2018-Apr-17 18:00N 55°31' E 015°07'612.1
2018-Apr-17 17:30N 55°28' E 014°58'612.1
2018-Apr-17 17:00N 55°26' E 014°48'612.0
2018-Apr-17 16:30N 55°22' E 014°39'712.3
2018-Apr-17 15:57N 55°17' E 014°31'612.3
2018-Apr-17 15:29N 55°12' E 014°25'612.4
2018-Apr-17 15:01N 55°08' E 014°20'712.3
2018-Apr-17 14:28N 55°02' E 014°13'612.0
2018-Apr-17 14:00N 54°60' E 014°04'812.5
2018-Apr-17 13:22N 54°57' E 013°51'4112.5
2018-Apr-17 10:08N 54°44' E 012°44'312.5
2018-Apr-17 09:53N 54°43' E 012°39'1812.0
2018-Apr-17 08:20N 54°30' E 012°16'412.3
2018-Apr-17 08:01N 54°26' E 012°13'2311.6
2018-Apr-17 06:03N 54°28' E 011°34'112.4
2018-Apr-17 06:00N 54°28' E 011°33'612.7
2018-Apr-17 05:30N 54°31' E 011°23'612.3
2018-Apr-17 05:00N 54°34' E 011°14'612.2
2018-Apr-17 04:31N 54°35' E 011°03'612.9
2018-Apr-17 04:00N 54°34' E 010°52'612.4
2018-Apr-17 03:31N 54°34' E 010°41'612.1
2018-Apr-17 03:01N 54°32' E 010°31'712.1
2018-Apr-17 02:26N 54°30' E 010°20'19 2.2
2018-Apr-16 18:04N 54°22' E 009°51'1 8.6
2018-Apr-16 18:00N 54°22' E 009°50'4 8.4
2018-Apr-16 17:30N 54°20' E 009°44'4 7.5
2018-Apr-16 17:00N 54°17' E 009°39'2 4.2
2018-Apr-16 16:30N 54°16' E 009°37'3 6.6
2018-Apr-16 16:00N 54°13' E 009°35'4 8.3
2018-Apr-16 15:30N 54°11' E 009°28'4 8.4
2018-Apr-16 15:00N 54°09' E 009°22'4 7.7
2018-Apr-16 14:30N 54°05' E 009°19'4 7.1
2018-Apr-16 14:00N 54°02' E 009°18'4 7.7
2018-Apr-16 13:30N 53°58' E 009°16'2 4.2
2018-Apr-16 13:00N 53°57' E 009°14'0 0.1
2018-Apr-16 12:30N 53°57' E 009°14'0 0.5
2018-Apr-16 12:00N 53°56' E 009°13'3 6.0
2018-Apr-16 11:30N 53°54' E 009°10'1 1.7
2018-Apr-16 11:00N 53°54' E 009°09'0 0.0
2018-Apr-16 10:30N 53°54' E 009°09'2 3.6
2018-Apr-16 10:00N 53°53' E 009°06'2 3.1
2018-Apr-16 09:30N 53°52' E 009°04'611.7
2018-Apr-16 09:00N 53°51' E 008°54'611.2
2018-Apr-16 08:30N 53°51' E 008°45'612.3
2018-Apr-16 08:00N 53°56' E 008°39'712.6
2018-Apr-16 07:28N 53°59' E 008°28'612.1
2018-Apr-16 07:00N 53°59' E 008°18'510.6
2018-Apr-16 06:30N 53°60' E 008°09'510.4
2018-Apr-16 06:00N 53°59' E 008°01'611.2
2018-Apr-16 05:30N 53°57' E 007°51'8310.5
2018-Apr-15 21:35N 53°35' E 005°36'410.1
2018-Apr-15 21:14N 53°34' E 005°30'410.1
2018-Apr-15 20:52N 53°33' E 005°24'410.3
2018-Apr-15 20:29N 53°31' E 005°18'510.5
2018-Apr-15 20:00N 53°30' E 005°10'510.3
2018-Apr-15 19:30N 53°28' E 005°02'510.8
2018-Apr-15 19:00N 53°26' E 004°54'611.0
2018-Apr-15 18:29N 53°24' E 004°45'511.2
2018-Apr-15 18:00N 53°19' E 004°40'712.4
2018-Apr-15 17:28N 53°14' E 004°34'612.9
2018-Apr-15 17:00N 53°08' E 004°29'612.2
2018-Apr-15 16:30N 53°03' E 004°24'612.1
2018-Apr-15 15:59N 52°57' E 004°20'612.4
2018-Apr-15 15:29N 52°52' E 004°15'612.5
2018-Apr-15 15:00N 52°47' E 004°09'713.7
2018-Apr-15 14:29N 52°42' E 004°01'713.7
2018-Apr-15 14:00N 52°37' E 003°53'813.6
2018-Apr-15 13:26N 52°31' E 003°45'6011.7
2018-Apr-15 08:21N 51°47' E 002°40'410.2
2018-Apr-15 07:59N 51°44' E 002°36'510.2
2018-Apr-15 07:30N 51°41' E 002°31'510.2
2018-Apr-15 06:59N 51°37' E 002°25'510.3
2018-Apr-15 06:29N 51°33' E 002°19'510.6
2018-Apr-15 05:59N 51°29' E 002°14'511.1
2018-Apr-15 05:30N 51°25' E 002°08'611.4
2018-Apr-15 05:00N 51°20' E 002°07'510.9
2018-Apr-15 04:30N 51°14' E 002°04'611.7
2018-Apr-15 04:00N 51°11' E 001°56'611.8
2018-Apr-15 03:30N 51°08' E 001°48'612.1
2018-Apr-15 03:00N 51°03' E 001°42'612.5
2018-Apr-15 02:30N 50°58' E 001°36'6612.1
2018-Apr-14 21:01N 50°20' E 000°10'013.9
2018-Apr-14 21:00N 50°20' E 000°10'714.0
2018-Apr-14 20:30N 50°18' W 000°01'714.3
2018-Apr-14 20:00N 50°16' W 000°12'714.5
2018-Apr-14 19:30N 50°14' W 000°22'714.5
2018-Apr-14 19:00N 50°12' W 000°33'714.4
2018-Apr-14 18:31N 50°10' W 000°44'714.2
2018-Apr-14 18:00N 50°09' W 000°55'713.5
2018-Apr-14 17:30N 50°06' W 001°05'713.3
2018-Apr-14 17:00N 50°05' W 001°15'612.6
2018-Apr-14 16:31N 50°03' W 001°24'611.6
2018-Apr-14 16:00N 50°01' W 001°33'3 5.7
2018-Apr-14 15:29N 50°00' W 001°37'1 2.4
2018-Apr-14 15:00N 50°00' W 001°36'2 3.2
2018-Apr-14 14:30N 50°00' W 001°33'2 3.6
2018-Apr-14 14:00N 50°00' W 001°30'2 4.0
2018-Apr-14 13:30N 50°00' W 001°27'2 4.1
2018-Apr-14 13:00N 50°00' W 001°24'2 4.1
2018-Apr-14 12:30N 50°00' W 001°21'2 3.5
2018-Apr-14 11:59N 50°00' W 001°18'2 3.3
2018-Apr-14 11:30N 50°00' W 001°20'5 9.9
2018-Apr-14 11:01N 49°59' W 001°28'510.7
2018-Apr-14 10:30N 49°58' W 001°36'611.3
2018-Apr-14 10:00N 49°57' W 001°45'612.2
2018-Apr-14 09:30N 49°56' W 001°54'613.0
2018-Apr-14 09:00N 49°55' W 002°04'1313.5
2018-Apr-14 08:04N 49°53' W 002°24'1613.3
2018-Apr-14 06:52N 49°48' W 002°47'9613.0
2018-Apr-13 23:29N 48°52' W 004°46'511.0
2018-Apr-13 23:01N 48°49' W 004°52'510.7
2018-Apr-13 22:30N 48°46' W 004°59'510.5
2018-Apr-13 22:00N 48°42' W 005°05'510.0
2018-Apr-13 21:31N 48°39' W 005°11'5 9.6
2018-Apr-13 21:00N 48°36' W 005°16'510.1
2018-Apr-13 20:30N 48°32' W 005°21'510.2
2018-Apr-13 19:57N 48°27' W 005°25'810.7
2018-Apr-13 19:13N 48°20' W 005°20'210.9
2018-Apr-13 18:59N 48°18' W 005°18'610.6
2018-Apr-13 18:27N 48°12' W 005°15'511.1
2018-Apr-13 18:00N 48°08' W 005°13'610.4
2018-Apr-13 17:27N 48°02' W 005°10'4 7.4
2018-Apr-13 16:58N 47°59' W 005°07'610.8
2018-Apr-13 16:27N 47°54' W 005°03'2910.9
2018-Apr-13 13:49N 47°29' W 004°42'511.5
2018-Apr-13 13:22N 47°25' W 004°39'511.7
2018-Apr-13 12:57N 47°20' W 004°35'711.7
2018-Apr-13 12:24N 47°15' W 004°30'511.7
2018-Apr-13 12:00N 47°11' W 004°26'1511.9
2018-Apr-13 10:46N 46°58' W 004°16'23211.6
2018-Apr-12 14:48N 43°36' W 001°35'412.8
2018-Apr-12 14:30N 43°33' W 001°32'2 2.4
2018-Apr-12 13:44N 43°32' W 001°30'0 0.0
2018-Apr-12 13:19N 43°32' W 001°30'0 0.0
2018-Apr-12 12:56N 43°32' W 001°30'0 0.0
2018-Apr-12 12:26N 43°32' W 001°30'0 0.0
2018-Apr-12 11:44N 43°32' W 001°30'0 0.0
2018-Apr-12 11:26N 43°32' W 001°30'0 0.0
2018-Apr-12 10:50N 43°32' W 001°30'0 0.0
2018-Apr-12 10:26N 43°32' W 001°30'0 0.0
2018-Apr-12 09:44N 43°32' W 001°30'0 0.0
2018-Apr-12 09:20N 43°32' W 001°30'0 0.0
2018-Apr-12 08:56N 43°32' W 001°30'0 0.0
2018-Apr-12 08:20N 43°32' W 001°30'0 0.0
2018-Apr-12 07:56N 43°32' W 001°30'0 0.0
2018-Apr-12 07:20N 43°32' W 001°30'0 0.0
2018-Apr-12 06:32N 43°32' W 001°30'0 0.0
2018-Apr-12 06:26N 43°32' W 001°30'0 0.0
2018-Apr-12 04:44N 43°32' W 001°30'0 0.0
2018-Apr-12 04:26N 43°32' W 001°30'0 0.0
2018-Apr-12 03:50N 43°32' W 001°30'0 0.0
2018-Apr-12 03:20N 43°32' W 001°30'0 0.0
2018-Apr-12 02:55N 43°32' W 001°30'0 0.0
2018-Apr-12 02:26N 43°32' W 001°30'0 0.0
2018-Apr-12 01:56N 43°32' W 001°30'0 0.0
2018-Apr-12 01:26N 43°32' W 001°30'0 0.0
2018-Apr-12 00:56N 43°32' W 001°30'0 0.0
2018-Apr-12 00:29N 43°32' W 001°30'0 0.0
2018-Apr-11 23:49N 43°32' W 001°30'0 0.0
2018-Apr-11 23:26N 43°32' W 001°30'0 0.0
2018-Apr-11 22:56N 43°32' W 001°30'0 0.0
2018-Apr-11 22:26N 43°32' W 001°30'0 0.0
2018-Apr-11 21:55N 43°32' W 001°30'0 0.0
2018-Apr-11 21:26N 43°32' W 001°30'0 0.0
2018-Apr-11 20:56N 43°32' W 001°30'0 0.0
2018-Apr-11 20:26N 43°32' W 001°30'0 0.0
2018-Apr-11 18:56N 43°32' W 001°30'0 0.0
2018-Apr-11 18:19N 43°32' W 001°30'0 0.0
2018-Apr-11 17:59N 43°32' W 001°30'0 0.0
2018-Apr-11 17:19N 43°32' W 001°30'0 0.0
2018-Apr-11 16:50N 43°32' W 001°30'0 0.0
2018-Apr-11 16:19N 43°32' W 001°30'0 0.0
2018-Apr-11 15:13N 43°32' W 001°30'0 0.0
2018-Apr-11 14:49N 43°32' W 001°30'0 0.0
2018-Apr-11 14:25N 43°32' W 001°30'0 0.0
2018-Apr-11 13:55N 43°32' W 001°30'0 0.0
2018-Apr-11 13:20N 43°32' W 001°30'0 0.0
2018-Apr-11 12:55N 43°32' W 001°30'0 0.0
2018-Apr-11 12:26N 43°32' W 001°30'0 0.0
2018-Apr-11 11:49N 43°32' W 001°30'0 0.0
2018-Apr-11 11:25N 43°32' W 001°30'0 0.0
2018-Apr-11 10:55N 43°32' W 001°30'0 0.0
2018-Apr-11 10:25N 43°32' W 001°30'0 0.0
2018-Apr-11 09:55N 43°32' W 001°30'0 0.0
2018-Apr-11 09:19N 43°32' W 001°30'0 0.0
2018-Apr-11 08:55N 43°32' W 001°30'0 0.0
2018-Apr-11 08:04N 43°32' W 001°30'0 0.0
2018-Apr-11 07:49N 43°32' W 001°30'0 0.0
2018-Apr-11 07:01N 43°32' W 001°30'0 0.0
2018-Apr-11 06:43N 43°32' W 001°30'0 0.0
2018-Apr-11 06:25N 43°32' W 001°30'0 0.0
2018-Apr-11 05:55N 43°32' W 001°30'0 0.0
2018-Apr-11 05:19N 43°32' W 001°30'0 0.0
2018-Apr-11 04:55N 43°32' W 001°30'0 0.0
2018-Apr-11 04:25N 43°32' W 001°30'0 0.0
2018-Apr-11 03:55N 43°32' W 001°30'0 0.0
2018-Apr-11 03:07N 43°32' W 001°30'0 0.0
2018-Apr-11 02:52N 43°32' W 001°30'0 0.0
2018-Apr-11 02:26N 43°32' W 001°30'0 0.0
2018-Apr-11 01:55N 43°32' W 001°30'0 0.0
2018-Apr-11 01:28N 43°32' W 001°30'0 0.0
2018-Apr-11 00:49N 43°32' W 001°30'0 0.0
2018-Apr-11 00:25N 43°32' W 001°30'0 0.0
2018-Apr-10 23:55N 43°32' W 001°30'0 0.0
2018-Apr-10 23:28N 43°32' W 001°30'0 0.0
2018-Apr-10 22:58N 43°32' W 001°30'0 0.0
2018-Apr-10 22:25N 43°32' W 001°30'0 0.0
2018-Apr-10 21:58N 43°32' W 001°30'0 0.0
2018-Apr-10 21:25N 43°32' W 001°30'0 0.0
2018-Apr-10 20:55N 43°32' W 001°30'0 0.0
2018-Apr-10 20:25N 43°32' W 001°30'0 0.0
2018-Apr-10 19:55N 43°32' W 001°30'0 0.0
2018-Apr-10 19:25N 43°32' W 001°30'0 0.0
2018-Apr-10 18:55N 43°32' W 001°30'0 0.0
2018-Apr-10 18:25N 43°32' W 001°30'0 0.0
2018-Apr-10 17:55N 43°32' W 001°30'0 0.0
2018-Apr-10 17:25N 43°32' W 001°30'0 0.0
2018-Apr-10 16:55N 43°32' W 001°30'0 0.0
2018-Apr-10 16:19N 43°32' W 001°30'0 0.0
2018-Apr-10 15:55N 43°32' W 001°30'0 0.0
2018-Apr-10 15:25N 43°32' W 001°30'0 0.0
2018-Apr-10 14:55N 43°32' W 001°30'0 0.0
2018-Apr-10 14:25N 43°32' W 001°30'0 0.0
2018-Apr-10 13:49N 43°32' W 001°30'0 0.0
2018-Apr-10 13:29N 43°32' W 001°30'1 1.3
2018-Apr-10 13:00N 43°32' W 001°31'5 9.3
2018-Apr-10 12:30N 43°34' W 001°36'5 8.5
2018-Apr-10 11:58N 43°37' W 001°41'  
Track history (hours):
 
Tides and Currents Weather Stations Pressure Air Temp Water Temp Dewpoint Dewpoint Depression Visibility Wind Speed Wind Dir Waves Ship Positions

Gomera

Last reported at 2018-Apr-19 17:36 UTC. Time now 2018-Apr-19 19:16 UTC.
Position N 60°01' E 029°20'.

Length 106 m; draft 4.5 m.

Type: Cargo ship. MMSI: 305996000.

Date/timePositionNaut miles runAvg speedWind from/ knotsBaromVisibWave heightAir tempDewpointWater temp
2018-Apr-19 17:36N 60°01' E 029°20'1 6.8
2018-Apr-19 17:30N 60°01' E 029°19'610.2
2018-Apr-19 16:57N 60°02' E 029°08'510.5
2018-Apr-19 16:31N 60°02' E 028°58'510.7
2018-Apr-19 16:00N 60°02' E 028°48'510.7
2018-Apr-19 15:30N 60°02' E 028°37'510.4
2018-Apr-19 15:00N 60°03' E 028°27'510.4
2018-Apr-19 14:30N 60°06' E 028°18'510.3
2018-Apr-19 14:00N 60°08' E 028°08'510.8
2018-Apr-19 13:30N 60°09' E 027°58'611.1
2018-Apr-19 13:00N 60°11' E 027°47'510.9
2018-Apr-19 12:30N 60°08' E 027°38'611.3
2018-Apr-19 12:00N 60°05' E 027°28'611.5
2018-Apr-19 11:30N 60°02' E 027°18'611.2
2018-Apr-19 11:00N 59°59' E 027°08'510.6
2018-Apr-19 10:30N 59°58' E 026°58'511.0
2018-Apr-19 10:00N 59°59' E 026°47'510.7
2018-Apr-19 09:30N 59°59' E 026°36'510.8
2018-Apr-19 09:00N 59°58' E 026°26'610.9
2018-Apr-19 08:30N 59°56' E 026°16'2511.4
2018-Apr-19 06:21N 59°49' E 025°28'411.7
2018-Apr-19 06:00N 59°49' E 025°20'611.9
2018-Apr-19 05:31N 59°48' E 025°09'611.8
2018-Apr-19 05:01N 59°47' E 024°57'612.0
2018-Apr-19 04:30N 59°45' E 024°46'611.9
2018-Apr-19 04:01N 59°44' E 024°34'612.0
2018-Apr-19 03:30N 59°43' E 024°23'811.9
2018-Apr-19 02:52N 59°40' E 024°08'511.8
2018-Apr-19 02:29N 59°39' E 023°60'612.0
2018-Apr-19 02:00N 59°37' E 023°49'612.1
2018-Apr-19 01:30N 59°36' E 023°37'612.1
2018-Apr-19 01:01N 59°34' E 023°26'711.9
2018-Apr-19 00:26N 59°32' E 023°13'27612.0
2018-Apr-18 01:18N 56°12' E 017°14'411.9
2018-Apr-18 01:00N 56°09' E 017°10'611.9
2018-Apr-18 00:30N 56°04' E 017°05'611.9
2018-Apr-18 00:00N 55°59' E 016°60'611.9
2018-Apr-17 23:30N 55°54' E 016°55'611.8
2018-Apr-17 23:00N 55°49' E 016°49'611.7
2018-Apr-17 22:30N 55°46' E 016°39'612.0
2018-Apr-17 22:00N 55°45' E 016°29'612.2
2018-Apr-17 21:30N 55°43' E 016°18'612.0
2018-Apr-17 21:01N 55°42' E 016°08'612.1
2018-Apr-17 20:31N 55°41' E 015°58'612.2
2018-Apr-17 20:01N 55°39' E 015°47'612.1
2018-Apr-17 19:30N 55°38' E 015°37'612.1
2018-Apr-17 19:00N 55°36' E 015°27'612.1
2018-Apr-17 18:30N 55°33' E 015°17'612.1
2018-Apr-17 18:00N 55°31' E 015°07'612.1
2018-Apr-17 17:30N 55°28' E 014°58'612.1
2018-Apr-17 17:00N 55°26' E 014°48'612.0
2018-Apr-17 16:30N 55°22' E 014°39'712.3
2018-Apr-17 15:57N 55°17' E 014°31'612.3
2018-Apr-17 15:29N 55°12' E 014°25'612.4
2018-Apr-17 15:01N 55°08' E 014°20'712.3
2018-Apr-17 14:28N 55°02' E 014°13'612.0
2018-Apr-17 14:00N 54°60' E 014°04'812.5
2018-Apr-17 13:22N 54°57' E 013°51'4112.5
2018-Apr-17 10:08N 54°44' E 012°44'312.5
2018-Apr-17 09:53N 54°43' E 012°39'1812.0
2018-Apr-17 08:20N 54°30' E 012°16'412.3
2018-Apr-17 08:01N 54°26' E 012°13'2311.6
2018-Apr-17 06:03N 54°28' E 011°34'112.4
2018-Apr-17 06:00N 54°28' E 011°33'612.7
2018-Apr-17 05:30N 54°31' E 011°23'612.3
2018-Apr-17 05:00N 54°34' E 011°14'612.2
2018-Apr-17 04:31N 54°35' E 011°03'612.9
2018-Apr-17 04:00N 54°34' E 010°52'612.4
2018-Apr-17 03:31N 54°34' E 010°41'612.1
2018-Apr-17 03:01N 54°32' E 010°31'712.1
2018-Apr-17 02:26N 54°30' E 010°20'19 2.2
2018-Apr-16 18:04N 54°22' E 009°51'1 8.6
2018-Apr-16 18:00N 54°22' E 009°50'4 8.4
2018-Apr-16 17:30N 54°20' E 009°44'4 7.5
2018-Apr-16 17:00N 54°17' E 009°39'2 4.2
2018-Apr-16 16:30N 54°16' E 009°37'3 6.6
2018-Apr-16 16:00N 54°13' E 009°35'4 8.3
2018-Apr-16 15:30N 54°11' E 009°28'4 8.4
2018-Apr-16 15:00N 54°09' E 009°22'4 7.7
2018-Apr-16 14:30N 54°05' E 009°19'4 7.1
2018-Apr-16 14:00N 54°02' E 009°18'4 7.7
2018-Apr-16 13:30N 53°58' E 009°16'2 4.2
2018-Apr-16 13:00N 53°57' E 009°14'0 0.1
2018-Apr-16 12:30N 53°57' E 009°14'0 0.5
2018-Apr-16 12:00N 53°56' E 009°13'3 6.0
2018-Apr-16 11:30N 53°54' E 009°10'1 1.7
2018-Apr-16 11:00N 53°54' E 009°09'0 0.0
2018-Apr-16 10:30N 53°54' E 009°09'2 3.6
2018-Apr-16 10:00N 53°53' E 009°06'2 3.1
2018-Apr-16 09:30N 53°52' E 009°04'611.7
2018-Apr-16 09:00N 53°51' E 008°54'611.2
2018-Apr-16 08:30N 53°51' E 008°45'612.3
2018-Apr-16 08:00N 53°56' E 008°39'712.6
2018-Apr-16 07:28N 53°59' E 008°28'612.1
2018-Apr-16 07:00N 53°59' E 008°18'510.6
2018-Apr-16 06:30N 53°60' E 008°09'510.4
2018-Apr-16 06:00N 53°59' E 008°01'611.2
2018-Apr-16 05:30N 53°57' E 007°51'8310.5
2018-Apr-15 21:35N 53°35' E 005°36'410.1
2018-Apr-15 21:14N 53°34' E 005°30'410.1
2018-Apr-15 20:52N 53°33' E 005°24'410.3
2018-Apr-15 20:29N 53°31' E 005°18'510.5
2018-Apr-15 20:00N 53°30' E 005°10'510.3
2018-Apr-15 19:30N 53°28' E 005°02'510.8
2018-Apr-15 19:00N 53°26' E 004°54'611.0
2018-Apr-15 18:29N 53°24' E 004°45'511.2
2018-Apr-15 18:00N 53°19' E 004°40'712.4
2018-Apr-15 17:28N 53°14' E 004°34'612.9
2018-Apr-15 17:00N 53°08' E 004°29'612.2
2018-Apr-15 16:30N 53°03' E 004°24'612.1
2018-Apr-15 15:59N 52°57' E 004°20'612.4
2018-Apr-15 15:29N 52°52' E 004°15'612.5
2018-Apr-15 15:00N 52°47' E 004°09'713.7
2018-Apr-15 14:29N 52°42' E 004°01'713.7
2018-Apr-15 14:00N 52°37' E 003°53'813.6
2018-Apr-15 13:26N 52°31' E 003°45'6011.7
2018-Apr-15 08:21N 51°47' E 002°40'410.2
2018-Apr-15 07:59N 51°44' E 002°36'510.2
2018-Apr-15 07:30N 51°41' E 002°31'510.2
2018-Apr-15 06:59N 51°37' E 002°25'510.3
2018-Apr-15 06:29N 51°33' E 002°19'510.6
2018-Apr-15 05:59N 51°29' E 002°14'511.1
2018-Apr-15 05:30N 51°25' E 002°08'611.4
2018-Apr-15 05:00N 51°20' E 002°07'510.9
2018-Apr-15 04:30N 51°14' E 002°04'611.7
2018-Apr-15 04:00N 51°11' E 001°56'611.8
2018-Apr-15 03:30N 51°08' E 001°48'612.1
2018-Apr-15 03:00N 51°03' E 001°42'612.5
2018-Apr-15 02:30N 50°58' E 001°36'6612.1
2018-Apr-14 21:01N 50°20' E 000°10'013.9
2018-Apr-14 21:00N 50°20' E 000°10'714.0
2018-Apr-14 20:30N 50°18' W 000°01'714.3
2018-Apr-14 20:00N 50°16' W 000°12'714.5
2018-Apr-14 19:30N 50°14' W 000°22'714.5
2018-Apr-14 19:00N 50°12' W 000°33'714.4
2018-Apr-14 18:31N 50°10' W 000°44'714.2
2018-Apr-14 18:00N 50°09' W 000°55'713.5
2018-Apr-14 17:30N 50°06' W 001°05'713.3
2018-Apr-14 17:00N 50°05' W 001°15'612.6
2018-Apr-14 16:31N 50°03' W 001°24'611.6
2018-Apr-14 16:00N 50°01' W 001°33'3 5.7
2018-Apr-14 15:29N 50°00' W 001°37'1 2.4
2018-Apr-14 15:00N 50°00' W 001°36'2 3.2
2018-Apr-14 14:30N 50°00' W 001°33'2 3.6
2018-Apr-14 14:00N 50°00' W 001°30'2 4.0
2018-Apr-14 13:30N 50°00' W 001°27'2 4.1
2018-Apr-14 13:00N 50°00' W 001°24'2 4.1
2018-Apr-14 12:30N 50°00' W 001°21'2 3.5
2018-Apr-14 11:59N 50°00' W 001°18'2 3.3
2018-Apr-14 11:30N 50°00' W 001°20'5 9.9
2018-Apr-14 11:01N 49°59' W 001°28'510.7
2018-Apr-14 10:30N 49°58' W 001°36'611.3
2018-Apr-14 10:00N 49°57' W 001°45'612.2
2018-Apr-14 09:30N 49°56' W 001°54'613.0
2018-Apr-14 09:00N 49°55' W 002°04'1313.5
2018-Apr-14 08:04N 49°53' W 002°24'1613.3
2018-Apr-14 06:52N 49°48' W 002°47'9613.0
2018-Apr-13 23:29N 48°52' W 004°46'511.0
2018-Apr-13 23:01N 48°49' W 004°52'510.7
2018-Apr-13 22:30N 48°46' W 004°59'510.5
2018-Apr-13 22:00N 48°42' W 005°05'510.0
2018-Apr-13 21:31N 48°39' W 005°11'5 9.6
2018-Apr-13 21:00N 48°36' W 005°16'510.1
2018-Apr-13 20:30N 48°32' W 005°21'510.2
2018-Apr-13 19:57N 48°27' W 005°25'810.7
2018-Apr-13 19:13N 48°20' W 005°20'210.9
2018-Apr-13 18:59N 48°18' W 005°18'610.6
2018-Apr-13 18:27N 48°12' W 005°15'511.1
2018-Apr-13 18:00N 48°08' W 005°13'610.4
2018-Apr-13 17:27N 48°02' W 005°10'4 7.4
2018-Apr-13 16:58N 47°59' W 005°07'610.8
2018-Apr-13 16:27N 47°54' W 005°03'2910.9
2018-Apr-13 13:49N 47°29' W 004°42'511.5
2018-Apr-13 13:22N 47°25' W 004°39'511.7
2018-Apr-13 12:57N 47°20' W 004°35'711.7
2018-Apr-13 12:24N 47°15' W 004°30'511.7
2018-Apr-13 12:00N 47°11' W 004°26'1511.9
2018-Apr-13 10:46N 46°58' W 004°16'23211.6
2018-Apr-12 14:48N 43°36' W 001°35'412.8
2018-Apr-12 14:30N 43°33' W 001°32'2 2.4
2018-Apr-12 13:44N 43°32' W 001°30'0 0.0
2018-Apr-12 13:19N 43°32' W 001°30'0 0.0
2018-Apr-12 12:56N 43°32' W 001°30'0 0.0
2018-Apr-12 12:26N 43°32' W 001°30'0 0.0
2018-Apr-12 11:44N 43°32' W 001°30'0 0.0
2018-Apr-12 11:26N 43°32' W 001°30'0 0.0
2018-Apr-12 10:50N 43°32' W 001°30'0 0.0
2018-Apr-12 10:26N 43°32' W 001°30'0 0.0
2018-Apr-12 09:44N 43°32' W 001°30'0 0.0
2018-Apr-12 09:20N 43°32' W 001°30'0 0.0
2018-Apr-12 08:56N 43°32' W 001°30'0 0.0
2018-Apr-12 08:20N 43°32' W 001°30'0 0.0
2018-Apr-12 07:56N 43°32' W 001°30'0 0.0
2018-Apr-12 07:20N 43°32' W 001°30'0 0.0
2018-Apr-12 06:32N 43°32' W 001°30'0 0.0
2018-Apr-12 06:26N 43°32' W 001°30'0 0.0
2018-Apr-12 04:44N 43°32' W 001°30'0 0.0
2018-Apr-12 04:26N 43°32' W 001°30'0 0.0
2018-Apr-12 03:50N 43°32' W 001°30'0 0.0
2018-Apr-12 03:20N 43°32' W 001°30'0 0.0
2018-Apr-12 02:55N 43°32' W 001°30'0 0.0
2018-Apr-12 02:26N 43°32' W 001°30'0 0.0
2018-Apr-12 01:56N 43°32' W 001°30'0 0.0
2018-Apr-12 01:26N 43°32' W 001°30'0 0.0
2018-Apr-12 00:56N 43°32' W 001°30'0 0.0
2018-Apr-12 00:29N 43°32' W 001°30'0 0.0
2018-Apr-11 23:49N 43°32' W 001°30'0 0.0
2018-Apr-11 23:26N 43°32' W 001°30'0 0.0
2018-Apr-11 22:56N 43°32' W 001°30'0 0.0
2018-Apr-11 22:26N 43°32' W 001°30'0 0.0
2018-Apr-11 21:55N 43°32' W 001°30'0 0.0
2018-Apr-11 21:26N 43°32' W 001°30'0 0.0
2018-Apr-11 20:56N 43°32' W 001°30'0 0.0
2018-Apr-11 20:26N 43°32' W 001°30'0 0.0
2018-Apr-11 18:56N 43°32' W 001°30'0 0.0
2018-Apr-11 18:19N 43°32' W 001°30'0 0.0
2018-Apr-11 17:59N 43°32' W 001°30'0 0.0
2018-Apr-11 17:19N 43°32' W 001°30'0 0.0
2018-Apr-11 16:50N 43°32' W 001°30'0 0.0
2018-Apr-11 16:19N 43°32' W 001°30'0 0.0
2018-Apr-11 15:13N 43°32' W 001°30'0 0.0
2018-Apr-11 14:49N 43°32' W 001°30'0 0.0
2018-Apr-11 14:25N 43°32' W 001°30'0 0.0
2018-Apr-11 13:55N 43°32' W 001°30'0 0.0
2018-Apr-11 13:20N 43°32' W 001°30'0 0.0
2018-Apr-11 12:55N 43°32' W 001°30'0 0.0
2018-Apr-11 12:26N 43°32' W 001°30'0 0.0
2018-Apr-11 11:49N 43°32' W 001°30'0 0.0
2018-Apr-11 11:25N 43°32' W 001°30'0 0.0
2018-Apr-11 10:55N 43°32' W 001°30'0 0.0
2018-Apr-11 10:25N 43°32' W 001°30'0 0.0
2018-Apr-11 09:55N 43°32' W 001°30'0 0.0
2018-Apr-11 09:19N 43°32' W 001°30'0 0.0
2018-Apr-11 08:55N 43°32' W 001°30'0 0.0
2018-Apr-11 08:04N 43°32' W 001°30'0 0.0
2018-Apr-11 07:49N 43°32' W 001°30'0 0.0
2018-Apr-11 07:01N 43°32' W 001°30'0 0.0
2018-Apr-11 06:43N 43°32' W 001°30'0 0.0
2018-Apr-11 06:25N 43°32' W 001°30'0 0.0
2018-Apr-11 05:55N 43°32' W 001°30'0 0.0
2018-Apr-11 05:19N 43°32' W 001°30'0 0.0
2018-Apr-11 04:55N 43°32' W 001°30'0 0.0
2018-Apr-11 04:25N 43°32' W 001°30'0 0.0
2018-Apr-11 03:55N 43°32' W 001°30'0 0.0
2018-Apr-11 03:07N 43°32' W 001°30'0 0.0
2018-Apr-11 02:52N 43°32' W 001°30'0 0.0
2018-Apr-11 02:26N 43°32' W 001°30'0 0.0
2018-Apr-11 01:55N 43°32' W 001°30'0 0.0
2018-Apr-11 01:28N 43°32' W 001°30'0 0.0
2018-Apr-11 00:49N 43°32' W 001°30'0 0.0
2018-Apr-11 00:25N 43°32' W 001°30'0 0.0
2018-Apr-10 23:55N 43°32' W 001°30'0 0.0
2018-Apr-10 23:28N 43°32' W 001°30'0 0.0
2018-Apr-10 22:58N 43°32' W 001°30'0 0.0
2018-Apr-10 22:25N 43°32' W 001°30'0 0.0
2018-Apr-10 21:58N 43°32' W 001°30'0 0.0
2018-Apr-10 21:25N 43°32' W 001°30'0 0.0
2018-Apr-10 20:55N 43°32' W 001°30'0 0.0
2018-Apr-10 20:25N 43°32' W 001°30'0 0.0
2018-Apr-10 19:55N 43°32' W 001°30'0 0.0
2018-Apr-10 19:25N 43°32' W 001°30'0 0.0
2018-Apr-10 18:55N 43°32' W 001°30'0 0.0
2018-Apr-10 18:25N 43°32' W 001°30'0 0.0
2018-Apr-10 17:55N 43°32' W 001°30'0 0.0
2018-Apr-10 17:25N 43°32' W 001°30'0 0.0
2018-Apr-10 16:55N 43°32' W 001°30'0 0.0
2018-Apr-10 16:19N 43°32' W 001°30'0 0.0
2018-Apr-10 15:55N 43°32' W 001°30'0 0.0
2018-Apr-10 15:25N 43°32' W 001°30'0 0.0
2018-Apr-10 14:55N 43°32' W 001°30'0 0.0
2018-Apr-10 14:25N 43°32' W 001°30'0 0.0
2018-Apr-10 13:49N 43°32' W 001°30'0 0.0
2018-Apr-10 13:29N 43°32' W 001°30'1 1.3
2018-Apr-10 13:00N 43°32' W 001°31'5 9.3
2018-Apr-10 12:30N 43°34' W 001°36'5 8.5
2018-Apr-10 11:58N 43°37' W 001°41'  

Dump ship's entire track history